createdAt,value
2023-01-19T00:00:15.281Z,-1.81
2023-01-19T00:02:43.464Z,-1.83
2023-01-19T00:05:10.101Z,-1.88
2023-01-19T00:07:36.490Z,-1.91
2023-01-19T00:10:02.915Z,-1.96
2023-01-19T00:12:29.340Z,-1.95
2023-01-19T00:14:55.696Z,-1.94
2023-01-19T00:17:22.058Z,-1.93
2023-01-19T00:19:48.412Z,-1.95
2023-01-19T00:22:14.887Z,-2.00
2023-01-19T00:24:41.295Z,-1.95
2023-01-19T00:27:07.874Z,-2.00
2023-01-19T00:29:34.321Z,-2.07
2023-01-19T00:32:01.470Z,-2.14
2023-01-19T00:34:36.668Z,-2.15
2023-01-19T00:37:04.388Z,-2.15
2023-01-19T00:39:30.877Z,-2.18
2023-01-19T00:42:15.611Z,-2.17
2023-01-19T00:44:42.012Z,-2.19
2023-01-19T00:47:08.445Z,-2.20
2023-01-19T00:49:34.807Z,-2.21
2023-01-19T00:52:01.178Z,-2.08
2023-01-19T00:54:27.702Z,-2.15
2023-01-19T00:56:54.117Z,-2.18
2023-01-19T00:59:20.642Z,-2.24
2023-01-19T01:01:47.096Z,-2.25
2023-01-19T01:04:14.450Z,-2.25
2023-01-19T01:06:40.804Z,-2.30
2023-01-19T01:09:11.877Z,-2.31
2023-01-19T01:11:42.575Z,-2.29
2023-01-19T01:14:10.900Z,-2.34
2023-01-19T01:16:37.550Z,-2.33
2023-01-19T01:19:03.921Z,-2.34
2023-01-19T01:21:30.306Z,-2.33
2023-01-19T01:23:56.673Z,-2.33
2023-01-19T01:26:23.276Z,-2.32
2023-01-19T01:28:50.589Z,-2.31
2023-01-19T01:31:17.019Z,-2.25
2023-01-19T01:33:43.494Z,-2.27
2023-01-19T01:36:11.533Z,-2.28
2023-01-19T01:38:39.653Z,-2.30
2023-01-19T01:41:06.393Z,-2.33
2023-01-19T01:43:49.411Z,-2.38
2023-01-19T01:46:17.587Z,-2.35
2023-01-19T01:48:54.426Z,-2.36
2023-01-19T01:51:28.330Z,-2.43
2023-01-19T01:54:12.576Z,-2.43
2023-01-19T01:56:42.534Z,-2.40
2023-01-19T01:59:18.000Z,-2.36
2023-01-19T02:02:03.285Z,-2.40
2023-01-19T02:04:31.924Z,-2.44
2023-01-19T02:07:16.771Z,-2.53
2023-01-19T02:10:02.122Z,-2.54
2023-01-19T02:12:47.424Z,-2.60
2023-01-19T02:15:18.868Z,-2.67
2023-01-19T02:17:46.133Z,-2.68
2023-01-19T02:20:13.209Z,-2.69
2023-01-19T02:22:48.864Z,-2.71
2023-01-19T02:25:16.657Z,-2.67
2023-01-19T02:27:43.103Z,-2.61
2023-01-19T02:30:10.833Z,-2.59
2023-01-19T02:32:37.249Z,-2.60
2023-01-19T02:35:03.891Z,-2.64
2023-01-19T02:37:37.386Z,-2.63
2023-01-19T02:40:06.026Z,-2.65
2023-01-19T02:42:37.543Z,-2.68
2023-01-19T02:45:06.907Z,-2.72
2023-01-19T02:47:43.066Z,-2.74
2023-01-19T02:50:28.195Z,-2.83
2023-01-19T02:53:15.216Z,-2.81
2023-01-19T02:55:48.188Z,-2.91
2023-01-19T02:58:34.274Z,-2.84
2023-01-19T03:01:00.656Z,-2.97
2023-01-19T03:03:49.281Z,-3.01
2023-01-19T03:06:31.645Z,-2.95
2023-01-19T03:09:07.053Z,-3.05
2023-01-19T03:11:38.461Z,-3.10
2023-01-19T03:14:11.078Z,-3.02
2023-01-19T03:16:48.617Z,-3.15
2023-01-19T03:19:21.685Z,-3.12
2023-01-19T03:21:52.039Z,-2.97
2023-01-19T03:24:20.890Z,-3.06
2023-01-19T03:26:56.053Z,-3.13
2023-01-19T03:29:24.735Z,-3.16
2023-01-19T03:31:52.976Z,-3.21
2023-01-19T03:34:23.858Z,-3.24
2023-01-19T03:36:54.827Z,-3.31
2023-01-19T03:39:26.770Z,-3.25
2023-01-19T03:42:08.632Z,-3.29
2023-01-19T03:44:37.434Z,-3.31
2023-01-19T03:47:05.865Z,-3.32
2023-01-19T03:49:34.238Z,-3.38
2023-01-19T03:52:01.025Z,-3.37
2023-01-19T03:54:28.115Z,-3.36
2023-01-19T03:56:54.645Z,-3.36
2023-01-19T03:59:21.838Z,-3.31
2023-01-19T04:01:49.017Z,-3.39
2023-01-19T04:04:15.811Z,-3.35
2023-01-19T04:06:43.213Z,-3.38
2023-01-19T04:09:09.860Z,-3.33
2023-01-19T04:11:36.313Z,-3.32
2023-01-19T04:14:02.693Z,-3.33
2023-01-19T04:16:29.134Z,-3.32
2023-01-19T04:18:55.952Z,-3.47
2023-01-19T04:21:22.553Z,-3.48
2023-01-19T04:23:49.935Z,-3.56
2023-01-19T04:26:16.484Z,-3.61
2023-01-19T04:28:43.115Z,-3.66
2023-01-19T04:31:09.577Z,-3.66
2023-01-19T04:33:35.967Z,-3.64
2023-01-19T04:36:04.023Z,-3.60
2023-01-19T04:38:30.399Z,-3.60
2023-01-19T04:40:56.967Z,-3.68
2023-01-19T04:43:23.912Z,-3.72
2023-01-19T04:45:50.756Z,-3.81
2023-01-19T04:48:18.456Z,-3.86
2023-01-19T04:50:44.911Z,-3.93
2023-01-19T04:53:13.524Z,-3.94
2023-01-19T04:55:39.921Z,-3.98
2023-01-19T04:58:06.415Z,-3.97
2023-01-19T05:00:33.602Z,-3.91
2023-01-19T05:03:01.478Z,-3.88
2023-01-19T05:05:28.541Z,-3.90
2023-01-19T05:07:55.130Z,-3.83
2023-01-19T05:10:21.859Z,-3.76
2023-01-19T05:12:48.236Z,-3.76
2023-01-19T05:15:14.668Z,-3.69
2023-01-19T05:17:41.033Z,-3.72
2023-01-19T05:20:09.438Z,-3.77
2023-01-19T05:22:35.822Z,-3.78
2023-01-19T05:25:02.252Z,-3.82
2023-01-19T05:27:28.635Z,-3.77
2023-01-19T05:29:54.987Z,-3.70
2023-01-19T05:32:21.424Z,-3.66
2023-01-19T05:34:47.952Z,-3.69
2023-01-19T05:37:14.493Z,-3.68
2023-01-19T05:39:41.032Z,-3.57
2023-01-19T05:42:07.499Z,-3.63
2023-01-19T05:44:33.964Z,-3.68
2023-01-19T05:47:00.351Z,-3.69
2023-01-19T05:49:26.830Z,-3.75
2023-01-19T05:51:53.194Z,-3.73
2023-01-19T05:54:19.573Z,-3.72
2023-01-19T05:56:45.998Z,-3.84
2023-01-19T05:59:12.504Z,-3.83
2023-01-19T06:01:40.288Z,-3.91
2023-01-19T06:04:07.365Z,-3.91
2023-01-19T06:06:33.723Z,-3.98
2023-01-19T06:09:00.103Z,-4.01
2023-01-19T06:11:26.702Z,-4.03
2023-01-19T06:13:53.072Z,-4.02
2023-01-19T06:16:19.485Z,-4.15
2023-01-19T06:18:46.069Z,-4.18
2023-01-19T06:21:14.212Z,-4.31
2023-01-19T06:23:40.969Z,-4.10
2023-01-19T06:26:07.677Z,-4.31
2023-01-19T06:28:34.309Z,-4.08
2023-01-19T06:31:01.054Z,-4.27
2023-01-19T06:33:28.025Z,-4.34
2023-01-19T06:35:54.942Z,-4.44
2023-01-19T06:38:21.873Z,-4.44
2023-01-19T06:40:58.721Z,-4.47
2023-01-19T06:43:26.301Z,-4.45
2023-01-19T06:45:52.896Z,-4.25
2023-01-19T06:48:22.033Z,-4.30
2023-01-19T06:50:49.036Z,-4.20
2023-01-19T06:53:16.867Z,-4.08
2023-01-19T06:55:43.955Z,-4.03
2023-01-19T06:58:10.857Z,-4.14
2023-01-19T07:00:37.538Z,-4.29
2023-01-19T07:03:07.632Z,-4.21
2023-01-19T07:05:36.951Z,-4.24
2023-01-19T07:08:03.978Z,-4.26
2023-01-19T07:11:27.021Z,-4.29
2023-01-19T07:13:17.426Z,-4.29
2023-01-19T07:15:44.089Z,-4.28
2023-01-19T07:18:10.488Z,-4.41
2023-01-19T07:20:37.866Z,-4.27
2023-01-19T07:23:04.456Z,-4.22
2023-01-19T07:25:30.875Z,-3.94
2023-01-19T07:27:58.890Z,-4.01
2023-01-19T07:30:25.588Z,-3.83
2023-01-19T07:32:54.254Z,-3.70
2023-01-19T07:35:21.859Z,-3.93
2023-01-19T07:37:48.421Z,-4.00
2023-01-19T07:40:15.038Z,-3.94
2023-01-19T07:42:49.171Z,-3.95
2023-01-19T07:45:17.254Z,-4.09
2023-01-19T07:47:51.731Z,-4.12
2023-01-19T07:50:21.265Z,-4.09
2023-01-19T07:52:50.568Z,-4.10
2023-01-19T07:55:17.073Z,-4.20
2023-01-19T07:57:43.776Z,-4.10
2023-01-19T08:00:10.625Z,-4.22
2023-01-19T08:02:37.881Z,-4.20
2023-01-19T08:05:04.469Z,-4.16
2023-01-19T08:07:30.869Z,-4.10
2023-01-19T08:09:57.396Z,-4.09
2023-01-19T08:12:23.867Z,-3.70
2023-01-19T08:14:50.313Z,-3.44
2023-01-19T08:17:17.131Z,-3.62
2023-01-19T08:19:43.664Z,-3.70
2023-01-19T08:22:10.028Z,-3.82
2023-01-19T08:24:36.521Z,-3.87
2023-01-19T08:27:03.824Z,-3.85
2023-01-19T08:29:31.788Z,-3.76
2023-01-19T08:32:00.117Z,-3.70
2023-01-19T08:34:27.075Z,-3.45
2023-01-19T08:36:53.846Z,-3.32
2023-01-19T08:39:20.383Z,-3.15
2023-01-19T08:41:46.881Z,-3.26
2023-01-19T08:44:13.275Z,-3.27
2023-01-19T08:46:39.682Z,-3.17
2023-01-19T08:49:06.127Z,-3.22
2023-01-19T08:51:32.568Z,-3.25
2023-01-19T08:53:58.970Z,-3.20
2023-01-19T08:56:25.883Z,-2.97
2023-01-19T08:59:07.588Z,-2.93
2023-01-19T09:01:34.918Z,-2.90
2023-01-19T09:04:01.584Z,-2.88
2023-01-19T09:06:28.404Z,-2.86
2023-01-19T09:08:54.988Z,-2.81
2023-01-19T09:11:21.374Z,-2.84
2023-01-19T09:13:47.858Z,-2.81
2023-01-19T09:16:15.839Z,-2.82
2023-01-19T09:18:42.323Z,-2.81
2023-01-19T09:21:09.512Z,-2.59
2023-01-19T09:23:36.324Z,-2.65
2023-01-19T09:26:04.805Z,-2.67
2023-01-19T09:28:31.905Z,-2.67
2023-01-19T09:30:58.362Z,-2.66
2023-01-19T09:33:24.841Z,-2.57
2023-01-19T09:35:51.806Z,-2.53
2023-01-19T09:38:19.837Z,-2.44
2023-01-19T09:40:52.255Z,-2.32
2023-01-19T09:43:41.679Z,-2.24
2023-01-19T09:46:32.632Z,-2.15
2023-01-19T09:49:04.939Z,-2.06
2023-01-19T09:51:40.519Z,-1.80
2023-01-19T09:54:13.163Z,-1.80
2023-01-19T09:56:42.432Z,-1.67
2023-01-19T09:59:33.504Z,-1.70
2023-01-19T10:02:24.371Z,-1.70
2023-01-19T10:05:08.000Z,-1.74
2023-01-19T10:07:53.258Z,-1.74
2023-01-19T10:10:31.025Z,-1.76
2023-01-19T10:13:24.749Z,-1.76
2023-01-19T10:16:02.395Z,-1.78
2023-01-19T10:18:45.721Z,-1.73
2023-01-19T10:21:26.158Z,-1.53
2023-01-19T10:23:57.050Z,-1.50
2023-01-19T10:26:28.124Z,-1.47
2023-01-19T10:29:01.666Z,-1.40
2023-01-19T10:31:28.152Z,-1.30
2023-01-19T10:33:54.603Z,-1.32
2023-01-19T10:36:37.511Z,-1.37
2023-01-19T10:39:05.133Z,-1.38
2023-01-19T10:41:42.307Z,-1.39
2023-01-19T10:44:10.730Z,-1.36
2023-01-19T10:46:46.034Z,-1.25
2023-01-19T10:49:38.701Z,-0.85
2023-01-19T10:52:19.437Z,-0.90
2023-01-19T10:54:48.308Z,-0.93
2023-01-19T10:57:26.627Z,-0.68
2023-01-19T10:59:53.079Z,-0.64
2023-01-19T11:02:30.471Z,-0.70
2023-01-19T11:04:59.369Z,-0.65
2023-01-19T11:07:25.845Z,-0.53
2023-01-19T11:10:20.833Z,-0.46
2023-01-19T11:12:57.904Z,-0.42
2023-01-19T11:15:34.760Z,-0.36
2023-01-19T11:18:04.572Z,-0.47
2023-01-19T11:20:52.646Z,-0.48
2023-01-19T11:23:46.383Z,-0.06
2023-01-19T11:26:25.306Z,-0.06
2023-01-19T11:28:54.661Z,0.10
2023-01-19T11:31:31.173Z,0.11
2023-01-19T11:34:02.845Z,0.04
2023-01-19T11:36:31.981Z,0.08
2023-01-19T11:39:26.462Z,0.08
2023-01-19T11:41:57.107Z,0.16
2023-01-19T11:44:32.510Z,0.07
2023-01-19T11:47:01.103Z,0.02
2023-01-19T11:49:37.745Z,-0.04
2023-01-19T11:52:13.347Z,0.04
2023-01-19T11:54:48.269Z,0.08
2023-01-19T11:57:17.230Z,0.04
2023-01-19T11:59:44.644Z,0.05
2023-01-19T12:02:24.368Z,0.01
2023-01-19T12:04:54.343Z,0.01
2023-01-19T12:07:25.099Z,0.03
2023-01-19T12:09:55.877Z,0.19
2023-01-19T12:12:32.101Z,0.18
2023-01-19T12:15:15.096Z,0.24
2023-01-19T12:17:47.326Z,0.43
2023-01-19T12:20:28.733Z,0.85
2023-01-19T12:23:33.599Z,0.77
2023-01-19T12:26:24.435Z,0.59
2023-01-19T12:28:53.129Z,0.51
2023-01-19T12:31:22.778Z,0.48
2023-01-19T12:33:49.549Z,0.48
2023-01-19T12:36:35.378Z,0.47
2023-01-19T12:39:19.636Z,0.56
2023-01-19T12:41:47.309Z,0.48
2023-01-19T12:44:16.533Z,0.51
2023-01-19T12:46:54.403Z,0.49
2023-01-19T12:49:26.910Z,0.71
2023-01-19T12:52:30.896Z,0.86
2023-01-19T12:55:15.303Z,0.82
2023-01-19T12:58:20.241Z,0.80
2023-01-19T13:00:48.908Z,0.94
2023-01-19T13:03:18.136Z,1.01
2023-01-19T13:05:44.517Z,0.98
2023-01-19T13:08:13.754Z,1.23
2023-01-19T13:11:12.960Z,1.11
2023-01-19T13:13:43.624Z,1.10
2023-01-19T13:16:19.510Z,1.02
2023-01-19T13:18:45.901Z,1.17
2023-01-19T13:21:12.868Z,1.01
2023-01-19T13:23:51.422Z,1.14
2023-01-19T13:26:23.646Z,1.28
2023-01-19T13:28:53.825Z,1.23
2023-01-19T13:31:20.715Z,1.31
2023-01-19T13:33:52.020Z,1.10
2023-01-19T13:36:26.553Z,1.17
2023-01-19T13:38:54.754Z,1.12
2023-01-19T13:41:25.808Z,1.14
2023-01-19T13:44:01.715Z,1.06
2023-01-19T13:46:30.361Z,1.06
2023-01-19T13:49:13.005Z,1.21
2023-01-19T13:51:39.421Z,1.13
2023-01-19T13:54:14.282Z,1.19
2023-01-19T13:56:42.612Z,1.19
2023-01-19T13:59:13.677Z,1.11
2023-01-19T14:01:43.756Z,1.18
2023-01-19T14:04:36.519Z,1.09
2023-01-19T14:07:12.443Z,1.17
2023-01-19T14:09:39.769Z,1.21
2023-01-19T14:12:15.889Z,1.20
2023-01-19T14:14:43.948Z,1.22
2023-01-19T14:17:22.793Z,1.30
2023-01-19T14:19:54.479Z,1.33
2023-01-19T14:22:21.188Z,1.36
2023-01-19T14:24:47.596Z,1.38
2023-01-19T14:27:20.364Z,1.27
2023-01-19T14:29:50.375Z,1.23
2023-01-19T14:32:19.821Z,1.18
2023-01-19T14:34:53.710Z,1.17
2023-01-19T14:37:21.834Z,1.17
2023-01-19T14:39:51.612Z,1.15
2023-01-19T14:42:26.226Z,1.03
2023-01-19T14:44:55.083Z,0.94
2023-01-19T14:47:37.146Z,0.93
2023-01-19T14:50:22.100Z,1.03
2023-01-19T14:52:56.055Z,0.81
2023-01-19T14:55:34.119Z,0.78
2023-01-19T14:58:00.536Z,0.73
2023-01-19T15:00:27.182Z,0.68
2023-01-19T15:02:53.806Z,0.79
2023-01-19T15:05:20.597Z,0.79
2023-01-19T15:07:47.192Z,0.68
2023-01-19T15:10:22.962Z,0.66
2023-01-19T15:12:51.769Z,0.56
2023-01-19T15:15:26.855Z,0.61
2023-01-19T15:17:55.304Z,0.54
2023-01-19T15:20:26.572Z,0.63
2023-01-19T15:22:52.960Z,0.41
2023-01-19T15:25:21.448Z,0.44
2023-01-19T15:27:48.549Z,0.60
2023-01-19T15:30:24.371Z,0.35
2023-01-19T15:32:50.791Z,0.30
2023-01-19T15:35:20.612Z,0.29
2023-01-19T15:37:48.718Z,0.19
2023-01-19T15:40:16.783Z,0.26
2023-01-19T15:42:43.278Z,0.24
2023-01-19T15:45:39.039Z,0.05
2023-01-19T15:48:11.276Z,0.01
2023-01-19T15:50:40.100Z,-0.02
2023-01-19T15:53:07.319Z,-0.08
2023-01-19T15:55:33.940Z,-0.05
2023-01-19T15:58:03.262Z,0.00
2023-01-19T16:00:33.923Z,-0.06
2023-01-19T16:03:01.551Z,-0.10
2023-01-19T16:05:41.886Z,-0.16
2023-01-19T16:08:10.118Z,0.00
2023-01-19T16:10:36.467Z,-0.09
2023-01-19T16:13:04.093Z,-0.10
2023-01-19T16:15:30.468Z,-0.20
2023-01-19T16:17:56.881Z,-0.27
2023-01-19T16:20:23.788Z,-0.33
2023-01-19T16:22:50.154Z,-0.38
2023-01-19T16:25:16.601Z,-0.32
2023-01-19T16:27:43.099Z,-0.27
2023-01-19T16:30:11.529Z,-0.24
2023-01-19T16:32:38.436Z,-0.36
2023-01-19T16:35:05.224Z,-0.32
2023-01-19T16:37:31.843Z,-0.40
2023-01-19T16:39:58.197Z,-0.36
2023-01-19T16:42:24.651Z,-0.39
2023-01-19T16:44:51.873Z,-0.39
2023-01-19T16:47:18.252Z,-0.52
2023-01-19T16:49:44.644Z,-0.42
2023-01-19T16:52:11.094Z,-0.46
2023-01-19T16:54:39.346Z,-0.61
2023-01-19T16:57:05.811Z,-0.66
2023-01-19T16:59:32.378Z,-0.71
2023-01-19T17:01:58.991Z,-0.75
2023-01-19T17:04:27.186Z,-0.81
2023-01-19T17:06:54.361Z,-0.81
2023-01-19T17:09:20.782Z,-0.84
2023-01-19T17:11:47.286Z,-0.79
2023-01-19T17:14:16.557Z,-0.82
2023-01-19T17:16:43.809Z,-0.87
2023-01-19T17:19:14.743Z,-0.94
2023-01-19T17:21:41.297Z,-0.97
2023-01-19T17:24:07.766Z,-1.00
2023-01-19T17:26:34.141Z,-0.97
2023-01-19T17:29:01.987Z,-0.94
2023-01-19T17:31:29.064Z,-1.00
2023-01-19T17:33:55.684Z,-1.01
2023-01-19T17:36:25.306Z,-0.95
2023-01-19T17:38:53.387Z,-1.03
2023-01-19T17:41:22.826Z,-1.06
2023-01-19T17:43:53.165Z,-1.05
2023-01-19T17:46:21.501Z,-1.07
2023-01-19T17:48:56.235Z,-1.06
2023-01-19T17:51:23.250Z,-1.06
2023-01-19T17:53:50.495Z,-1.06
2023-01-19T17:56:18.856Z,-1.03
2023-01-19T17:58:45.437Z,-1.02
2023-01-19T18:01:14.702Z,-0.99
2023-01-19T18:03:41.464Z,-0.98
2023-01-19T18:06:08.063Z,-1.00
2023-01-19T18:08:37.468Z,-0.99
2023-01-19T18:11:04.024Z,-0.97
2023-01-19T18:13:30.522Z,-0.88
2023-01-19T18:16:24.808Z,-0.83
2023-01-19T18:18:53.598Z,-0.79
2023-01-19T18:21:21.866Z,-0.86
2023-01-19T18:23:50.068Z,-0.84
2023-01-19T18:26:19.753Z,-0.78
2023-01-19T18:28:47.249Z,-0.87
2023-01-19T18:31:16.447Z,-0.87
2023-01-19T18:33:42.985Z,-0.87
2023-01-19T18:36:10.077Z,-0.87
2023-01-19T18:38:38.407Z,-0.88
2023-01-19T18:41:07.472Z,-0.88
2023-01-19T18:43:34.553Z,-0.85
2023-01-19T18:46:01.037Z,-0.78
2023-01-19T18:48:27.744Z,-0.69
2023-01-19T18:50:54.307Z,-0.68
2023-01-19T18:53:21.730Z,-0.73
2023-01-19T18:55:53.686Z,-0.75
2023-01-19T18:58:20.753Z,-0.77
2023-01-19T19:00:48.055Z,-0.76
2023-01-19T19:03:14.640Z,-0.76
2023-01-19T19:05:41.176Z,-0.74
2023-01-19T19:08:07.732Z,-0.73
2023-01-19T19:10:34.220Z,-0.72
2023-01-19T19:13:00.641Z,-0.69
2023-01-19T19:15:27.270Z,-0.64
2023-01-19T19:17:54.334Z,-0.62
2023-01-19T19:20:22.797Z,-0.63
2023-01-19T19:22:49.446Z,-0.60
2023-01-19T19:25:16.309Z,-0.60
2023-01-19T19:27:45.293Z,-0.59
2023-01-19T19:30:12.954Z,-0.57
2023-01-19T19:32:39.724Z,-0.54
2023-01-19T19:35:06.385Z,-0.50
2023-01-19T19:37:32.810Z,-0.50
2023-01-19T19:39:59.937Z,-0.51
2023-01-19T19:42:29.071Z,-0.49
2023-01-19T19:44:55.901Z,-0.38
2023-01-19T19:47:22.516Z,-0.36
2023-01-19T19:49:48.894Z,-0.41
2023-01-19T19:52:15.508Z,-0.41
2023-01-19T19:54:42.358Z,-0.41
2023-01-19T19:57:08.805Z,-0.40
2023-01-19T19:59:35.408Z,-0.40
2023-01-19T20:02:01.849Z,-0.38
2023-01-19T20:04:28.632Z,-0.35
2023-01-19T20:06:55.114Z,-0.34
2023-01-19T20:09:21.471Z,-0.36
2023-01-19T20:11:49.012Z,-0.35
2023-01-19T20:14:16.489Z,-0.29
2023-01-19T20:16:43.233Z,-0.30
2023-01-19T20:19:10.072Z,-0.32
2023-01-19T20:21:39.528Z,-0.31
2023-01-19T20:24:13.792Z,-0.34
2023-01-19T20:26:43.356Z,-0.31
2023-01-19T20:29:10.932Z,-0.24
2023-01-19T20:31:40.297Z,-0.31
2023-01-19T20:34:09.437Z,-0.32
2023-01-19T20:36:36.341Z,-0.34
2023-01-19T20:39:08.582Z,-0.33
2023-01-19T20:41:43.081Z,-0.32
2023-01-19T20:44:15.464Z,-0.32
2023-01-19T20:46:42.357Z,-0.31
2023-01-19T20:49:09.172Z,-0.30
2023-01-19T20:51:37.324Z,-0.31
2023-01-19T20:54:04.183Z,-0.26
2023-01-19T20:56:30.759Z,-0.24
2023-01-19T20:58:59.036Z,-0.13
2023-01-19T21:01:26.002Z,-0.17
2023-01-19T21:03:52.431Z,-0.13
2023-01-19T21:06:19.699Z,-0.09
2023-01-19T21:08:46.631Z,-0.10
2023-01-19T21:11:13.338Z,-0.06
2023-01-19T21:13:39.984Z,0.06
2023-01-19T21:16:06.868Z,0.03
2023-01-19T21:18:33.575Z,0.05
2023-01-19T21:21:00.035Z,0.08
2023-01-19T21:23:27.690Z,0.09
2023-01-19T21:25:57.246Z,0.20
2023-01-19T21:28:24.589Z,0.35
2023-01-19T21:30:52.931Z,0.41
2023-01-19T21:33:20.671Z,0.44
2023-01-19T21:35:55.743Z,0.39
2023-01-19T21:38:23.611Z,0.37
2023-01-19T21:40:50.447Z,0.34
2023-01-19T21:43:19.254Z,0.36
2023-01-19T21:45:47.313Z,0.33
2023-01-19T21:48:14.268Z,0.40
2023-01-19T21:51:04.852Z,0.47
2023-01-19T21:53:31.256Z,0.44
2023-01-19T21:55:58.774Z,0.40
2023-01-19T21:58:25.233Z,0.50
2023-01-19T22:00:59.115Z,0.45
2023-01-19T22:03:27.315Z,0.44
2023-01-19T22:05:55.747Z,0.42
2023-01-19T22:08:23.648Z,0.41
2023-01-19T22:10:50.100Z,0.45
2023-01-19T22:13:16.627Z,0.51
2023-01-19T22:15:42.998Z,0.44
2023-01-19T22:18:10.297Z,0.42
2023-01-19T22:20:36.662Z,0.48
2023-01-19T22:23:03.100Z,0.48
2023-01-19T22:25:29.551Z,0.64
2023-01-19T22:27:56.277Z,0.56
2023-01-19T22:30:22.823Z,0.57
2023-01-19T22:32:49.276Z,0.67
2023-01-19T22:35:16.327Z,0.57
2023-01-19T22:37:42.703Z,0.51
2023-01-19T22:40:09.610Z,0.58
2023-01-19T22:42:36.207Z,0.42
2023-01-19T22:45:02.587Z,0.37
2023-01-19T22:47:29.110Z,0.32
2023-01-19T22:49:55.809Z,0.29
2023-01-19T22:52:22.209Z,0.24
2023-01-19T22:54:48.716Z,0.29
2023-01-19T22:57:15.137Z,0.20
2023-01-19T22:59:43.559Z,0.16
2023-01-19T23:02:10.016Z,0.13
2023-01-19T23:04:36.428Z,0.10
2023-01-19T23:07:02.941Z,0.20
2023-01-19T23:09:29.313Z,0.17
2023-01-19T23:11:55.699Z,0.30
2023-01-19T23:14:22.352Z,0.35
2023-01-19T23:16:48.741Z,0.31
2023-01-19T23:19:17.131Z,0.32
2023-01-19T23:21:44.637Z,0.30
2023-01-19T23:24:11.330Z,0.34
2023-01-19T23:26:38.562Z,0.38
2023-01-19T23:29:12.665Z,0.39
2023-01-19T23:31:42.692Z,0.41
2023-01-19T23:34:10.482Z,0.46
2023-01-19T23:36:38.976Z,0.45
2023-01-19T23:39:11.853Z,0.42
2023-01-19T23:41:38.320Z,0.49
2023-01-19T23:44:04.858Z,0.56
2023-01-19T23:46:31.734Z,0.59
2023-01-19T23:48:58.132Z,0.67
2023-01-19T23:51:29.602Z,0.68
2023-01-19T23:53:57.369Z,0.73
2023-01-19T23:56:26.779Z,0.70
2023-01-19T23:58:56.638Z,0.63
